createdAt,value
2019-04-06T00:00:35.739Z,81.50
2019-04-06T00:03:03.979Z,81.54
2019-04-06T00:05:32.258Z,81.59
2019-04-06T00:08:00.525Z,81.41
2019-04-06T00:10:28.810Z,81.59
2019-04-06T00:12:57.074Z,81.75
2019-04-06T00:15:25.348Z,81.97
2019-04-06T00:17:53.631Z,82.15
2019-04-06T00:20:21.903Z,82.65
2019-04-06T00:22:50.176Z,82.69
2019-04-06T00:25:18.507Z,82.43
2019-04-06T00:27:46.716Z,82.26
2019-04-06T00:30:15.237Z,82.00
2019-04-06T00:32:47.934Z,81.68
2019-04-06T00:35:16.228Z,81.70
2019-04-06T00:37:44.492Z,81.38
2019-04-06T00:40:12.846Z,81.08
2019-04-06T00:42:41.113Z,81.33
2019-04-06T00:45:09.478Z,81.12
2019-04-06T00:47:37.723Z,81.83
2019-04-06T00:50:07.381Z,81.88
2019-04-06T00:52:35.642Z,81.78
2019-04-06T00:55:05.277Z,81.30
2019-04-06T00:57:33.542Z,81.40
2019-04-06T01:00:01.892Z,81.68
2019-04-06T01:02:30.177Z,81.67
2019-04-06T01:04:58.451Z,82.07
2019-04-06T01:07:26.718Z,82.98
2019-04-06T01:09:55.016Z,83.41
2019-04-06T01:12:23.285Z,83.35
2019-04-06T01:14:51.587Z,83.74
2019-04-06T01:17:19.833Z,83.29
2019-04-06T01:19:48.110Z,82.67
2019-04-06T01:22:16.368Z,82.24
2019-04-06T01:24:44.655Z,82.38
2019-04-06T01:27:12.938Z,83.03
2019-04-06T01:29:41.224Z,83.73
2019-04-06T01:32:09.552Z,83.45
2019-04-06T01:34:37.840Z,83.08
2019-04-06T01:37:06.110Z,83.53
2019-04-06T01:39:34.389Z,83.23
2019-04-06T01:42:09.454Z,83.39
2019-04-06T01:44:37.743Z,83.39
2019-04-06T01:47:06.000Z,83.74
2019-04-06T01:49:34.270Z,84.79
2019-04-06T01:52:02.584Z,85.30
2019-04-06T01:54:30.839Z,85.07
2019-04-06T01:56:59.115Z,84.75
2019-04-06T01:59:27.449Z,84.44
2019-04-06T02:02:03.153Z,84.87
2019-04-06T02:04:31.458Z,85.40
2019-04-06T02:06:59.735Z,84.75
2019-04-06T02:09:28.024Z,84.35
2019-04-06T02:11:56.289Z,84.14
2019-04-06T02:14:24.554Z,84.99
2019-04-06T02:16:52.838Z,84.79
2019-04-06T02:19:21.100Z,84.23
2019-04-06T02:21:49.461Z,83.95
2019-04-06T02:24:17.792Z,84.99
2019-04-06T02:26:46.088Z,85.51
2019-04-06T02:29:14.342Z,85.69
2019-04-06T02:31:49.739Z,85.14
2019-04-06T02:34:31.532Z,86.64
2019-04-06T02:37:16.125Z,86.78
2019-04-06T02:39:51.934Z,86.55
2019-04-06T02:42:22.005Z,86.83
2019-04-06T02:44:50.434Z,86.20
2019-04-06T02:47:18.835Z,86.48
2019-04-06T02:49:47.165Z,86.10
2019-04-06T02:52:15.463Z,86.66
2019-04-06T02:54:43.736Z,86.73
2019-04-06T02:57:12.041Z,86.11
2019-04-06T02:59:40.502Z,86.19
2019-04-06T03:02:08.791Z,86.26
2019-04-06T03:04:37.069Z,85.87
2019-04-06T03:07:05.367Z,85.83
2019-04-06T03:09:33.602Z,85.11
2019-04-06T03:12:02.050Z,85.04
2019-04-06T03:14:30.385Z,85.87
2019-04-06T03:16:58.664Z,85.42
2019-04-06T03:19:27.316Z,85.97
2019-04-06T03:21:55.624Z,86.54
2019-04-06T03:24:23.846Z,87.48
2019-04-06T03:27:00.668Z,87.64
2019-04-06T03:29:22.264Z,88.06
2019-04-06T03:31:50.490Z,88.82
2019-04-06T03:34:21.577Z,88.85
2019-04-06T03:36:48.783Z,88.93
2019-04-06T03:39:17.048Z,89.15
2019-04-06T03:41:45.317Z,89.62
2019-04-06T03:44:13.593Z,89.20
2019-04-06T03:46:41.864Z,89.80
2019-04-06T03:49:10.129Z,90.28
2019-04-06T03:51:38.474Z,89.97
2019-04-06T03:54:06.742Z,89.95
2019-04-06T03:56:35.024Z,90.29
2019-04-06T03:59:03.304Z,90.63
2019-04-06T04:01:31.607Z,90.66
2019-04-06T04:03:59.872Z,90.87
2019-04-06T04:06:28.127Z,90.90
2019-04-06T04:08:56.441Z,90.12
2019-04-06T04:11:24.947Z,88.99
2019-04-06T04:13:53.270Z,88.15
2019-04-06T04:16:21.515Z,87.62
2019-04-06T04:18:49.978Z,87.95
2019-04-06T04:21:18.344Z,87.52
2019-04-06T04:23:46.608Z,86.83
2019-04-06T04:26:14.874Z,87.14
2019-04-06T04:28:43.152Z,87.57
2019-04-06T04:31:11.495Z,88.28
2019-04-06T04:33:39.789Z,89.41
2019-04-06T04:36:08.124Z,89.25
2019-04-06T04:38:36.410Z,89.32
2019-04-06T04:41:04.673Z,89.77
2019-04-06T04:43:32.955Z,89.61
2019-04-06T04:46:01.219Z,89.73
2019-04-06T04:48:29.622Z,89.23
2019-04-06T04:50:57.886Z,88.68
2019-04-06T04:53:26.170Z,89.06
2019-04-06T04:55:54.434Z,89.15
2019-04-06T04:58:22.720Z,89.31
2019-04-06T05:00:51.201Z,89.42
2019-04-06T05:03:19.515Z,88.67
2019-04-06T05:05:47.746Z,88.04
2019-04-06T05:08:16.022Z,87.95
2019-04-06T05:10:45.182Z,87.51
2019-04-06T05:13:13.505Z,88.73
2019-04-06T05:15:53.654Z,89.31
2019-04-06T05:18:21.939Z,89.54
2019-04-06T05:20:50.269Z,89.32
2019-04-06T05:23:18.569Z,88.87
2019-04-06T05:25:46.823Z,89.59
2019-04-06T05:28:15.260Z,89.50
2019-04-06T05:30:43.556Z,89.07
2019-04-06T05:33:11.816Z,88.88
2019-04-06T05:35:40.297Z,89.02
2019-04-06T05:38:08.629Z,89.10
2019-04-06T05:40:37.039Z,88.60
2019-04-06T05:43:05.300Z,88.39
2019-04-06T05:45:33.573Z,88.66
2019-04-06T05:48:01.839Z,88.01
2019-04-06T05:50:30.198Z,87.24
2019-04-06T05:52:58.454Z,86.96
2019-04-06T05:55:26.727Z,86.69
2019-04-06T05:58:03.717Z,85.60
2019-04-06T06:00:25.154Z,85.03
2019-04-06T06:02:53.411Z,85.71
2019-04-06T06:05:21.885Z,87.59
2019-04-06T06:07:50.217Z,88.73
2019-04-06T06:10:18.869Z,89.24
2019-04-06T06:12:47.179Z,89.15
2019-04-06T06:15:15.500Z,89.14
2019-04-06T06:17:43.792Z,89.35
2019-04-06T06:20:12.067Z,89.38
2019-04-06T06:22:40.349Z,89.25
2019-04-06T06:25:08.665Z,88.79
2019-04-06T06:27:36.928Z,88.30
2019-04-06T06:30:06.764Z,88.20
2019-04-06T06:32:35.030Z,87.77
2019-04-06T06:35:03.456Z,87.31
2019-04-06T06:37:31.819Z,87.03
2019-04-06T06:40:00.098Z,86.52
2019-04-06T06:42:28.479Z,86.07
2019-04-06T06:44:56.710Z,86.29
2019-04-06T06:47:24.963Z,86.44
2019-04-06T06:49:54.817Z,86.75
2019-04-06T06:52:23.153Z,86.00
2019-04-06T06:54:51.472Z,85.99
2019-04-06T06:57:19.776Z,85.92
2019-04-06T06:59:48.095Z,85.54
2019-04-06T07:02:16.384Z,85.41
2019-04-06T07:04:44.838Z,85.43
2019-04-06T07:07:13.156Z,84.79
2019-04-06T07:09:41.406Z,84.35
2019-04-06T07:12:09.733Z,83.83
2019-04-06T07:14:38.074Z,83.65
2019-04-06T07:17:06.349Z,83.85
2019-04-06T07:19:34.593Z,83.67
2019-04-06T07:22:02.897Z,83.75
2019-04-06T07:24:31.139Z,82.91
2019-04-06T07:26:59.615Z,83.07
2019-04-06T07:29:27.871Z,82.91
2019-04-06T07:31:56.145Z,82.51
2019-04-06T07:34:24.418Z,82.46
2019-04-06T07:36:52.710Z,82.03
2019-04-06T07:39:21.186Z,82.12
2019-04-06T07:41:49.432Z,81.13
2019-04-06T07:44:17.758Z,81.08
2019-04-06T07:46:46.138Z,80.36
2019-04-06T07:49:14.718Z,80.10
2019-04-06T07:51:43.056Z,78.51
2019-04-06T07:54:11.334Z,78.02
2019-04-06T07:56:39.615Z,77.75
2019-04-06T07:59:07.888Z,77.45
2019-04-06T08:01:36.230Z,77.21
2019-04-06T08:04:04.853Z,76.51
2019-04-06T08:06:34.076Z,74.77
2019-04-06T08:09:02.373Z,74.57
2019-04-06T08:11:30.651Z,74.59
2019-04-06T08:13:58.915Z,74.17
2019-04-06T08:16:27.191Z,73.50
2019-04-06T08:18:55.442Z,73.15
2019-04-06T08:21:23.851Z,73.55
2019-04-06T08:23:52.121Z,72.22
2019-04-06T08:26:20.617Z,72.85
2019-04-06T08:28:59.796Z,74.64
2019-04-06T08:31:18.940Z,73.04
2019-04-06T08:33:47.235Z,71.54
2019-04-06T08:36:16.257Z,72.12
2019-04-06T08:38:43.960Z,70.02
2019-04-06T08:41:12.431Z,70.33
2019-04-06T08:43:40.734Z,70.94
2019-04-06T08:46:09.031Z,71.14
2019-04-06T08:48:37.567Z,72.75
2019-04-06T08:51:05.893Z,70.81
2019-04-06T08:53:34.311Z,67.83
2019-04-06T08:56:02.689Z,69.52
2019-04-06T08:58:30.973Z,69.66
2019-04-06T09:00:59.215Z,68.27
2019-04-06T09:03:27.513Z,68.57
2019-04-06T09:05:55.779Z,68.59
2019-04-06T09:08:24.056Z,67.05
2019-04-06T09:10:52.444Z,65.32
2019-04-06T09:13:21.014Z,65.72
2019-04-06T09:15:49.499Z,65.68
2019-04-06T09:18:17.813Z,64.80
2019-04-06T09:23:37.488Z,63.98
2019-04-06T09:26:05.790Z,63.13
2019-04-06T09:28:34.078Z,62.91
2019-04-06T09:31:02.351Z,61.07
2019-04-06T09:33:30.637Z,59.07
2019-04-06T09:35:58.923Z,59.17
2019-04-06T09:38:27.476Z,57.73
2019-04-06T09:40:55.802Z,53.82
2019-04-06T09:43:24.402Z,52.17
2019-04-06T09:45:57.198Z,49.58
2019-04-06T09:48:33.055Z,48.77
2019-04-06T09:51:08.943Z,45.76
2019-04-06T09:53:47.964Z,45.08
2019-04-06T09:56:17.839Z,42.10
2019-04-06T09:58:50.531Z,38.95
2019-04-06T10:01:38.967Z,41.63
2019-04-06T10:04:10.374Z,39.54
2019-04-06T10:06:52.215Z,35.91
2019-04-06T10:09:37.362Z,40.38
2019-04-06T10:12:23.128Z,42.88
2019-04-06T10:14:55.616Z,41.86
2019-04-06T10:17:28.469Z,40.55
2019-04-06T10:20:01.125Z,40.71
2019-04-06T10:22:39.759Z,39.77
2019-04-06T10:25:18.638Z,40.34
2019-04-06T10:27:51.451Z,37.11
2019-04-06T10:30:21.355Z,39.29
2019-04-06T10:32:53.827Z,40.71
2019-04-06T10:35:38.880Z,39.60
2019-04-06T10:38:24.940Z,38.56
2019-04-06T10:41:03.784Z,37.09
2019-04-06T10:43:36.260Z,35.88
2019-04-06T10:46:08.924Z,35.30
2019-04-06T10:48:48.091Z,35.99
2019-04-06T10:51:17.999Z,33.08
2019-04-06T10:53:56.727Z,36.77
2019-04-06T10:56:32.186Z,40.31
2019-04-06T10:59:18.502Z,38.33
2019-04-06T11:01:48.452Z,35.73
2019-04-06T11:04:21.093Z,36.05
2019-04-06T11:06:56.502Z,34.95
2019-04-06T11:09:31.906Z,34.01
2019-04-06T11:12:01.828Z,32.69
2019-04-06T11:14:37.638Z,33.43
2019-04-06T11:17:13.751Z,35.73
2019-04-06T11:19:50.618Z,36.21
2019-04-06T11:22:23.487Z,34.62
2019-04-06T11:24:59.387Z,34.70
2019-04-06T11:27:45.167Z,36.17
2019-04-06T11:30:21.101Z,34.34
2019-04-06T11:33:09.008Z,31.46
2019-04-06T11:35:41.459Z,30.85
2019-04-06T11:38:11.438Z,32.27
2019-04-06T11:40:56.655Z,33.93
2019-04-06T11:43:26.633Z,30.64
2019-04-06T11:46:07.882Z,32.65
2019-04-06T11:48:37.790Z,32.53
2019-04-06T11:51:22.955Z,29.35
2019-04-06T11:53:58.406Z,31.39
2019-04-06T11:56:46.270Z,30.62
2019-04-06T11:59:18.941Z,31.10
2019-04-06T12:01:54.343Z,31.48
2019-04-06T12:04:24.262Z,31.97
2019-04-06T12:07:09.801Z,32.21
2019-04-06T12:09:39.720Z,33.75
2019-04-06T12:12:21.418Z,31.48
2019-04-06T12:14:57.108Z,31.67
2019-04-06T12:17:29.757Z,34.34
2019-04-06T12:20:02.241Z,31.88
2019-04-06T12:22:41.876Z,32.90
2019-04-06T12:25:11.221Z,32.77
2019-04-06T12:27:52.936Z,32.06
2019-04-06T12:30:39.430Z,32.51
2019-04-06T12:33:25.583Z,33.16
2019-04-06T12:35:58.242Z,33.50
2019-04-06T12:38:44.294Z,34.03
2019-04-06T12:41:30.708Z,34.47
2019-04-06T12:44:03.201Z,33.33
2019-04-06T12:46:52.079Z,31.72
2019-04-06T12:49:33.380Z,32.43
2019-04-06T12:52:03.848Z,31.32
2019-04-06T12:54:39.242Z,31.32
2019-04-06T12:57:12.225Z,31.98
2019-04-06T12:59:47.916Z,32.99
2019-04-06T13:02:20.272Z,29.84
2019-04-06T13:05:06.339Z,30.18
2019-04-06T13:07:42.101Z,29.02
2019-04-06T13:10:14.698Z,29.42
2019-04-06T13:12:44.626Z,30.15
2019-04-06T13:15:18.082Z,31.01
2019-04-06T13:18:02.848Z,31.84
2019-04-06T13:20:35.880Z,32.92
2019-04-06T13:23:18.216Z,32.32
2019-04-06T13:25:56.971Z,30.71
2019-04-06T13:28:29.751Z,30.56
2019-04-06T13:31:17.951Z,31.75
2019-04-06T13:33:56.817Z,31.59
2019-04-06T13:36:27.027Z,32.88
2019-04-06T13:38:56.937Z,33.60
2019-04-06T13:41:29.842Z,34.02
2019-04-06T13:44:16.326Z,34.04
2019-04-06T13:47:02.737Z,34.20
2019-04-06T13:49:38.542Z,35.54
2019-04-06T13:52:11.239Z,36.33
2019-04-06T13:54:41.261Z,35.19
2019-04-06T13:57:22.940Z,35.37
2019-04-06T13:59:53.140Z,34.95
2019-04-06T14:02:26.034Z,34.89
2019-04-06T14:05:10.943Z,35.24
2019-04-06T14:07:43.705Z,35.46
2019-04-06T14:10:16.084Z,36.73
2019-04-06T14:13:04.592Z,37.26
2019-04-06T14:15:52.571Z,34.77
2019-04-06T14:18:28.525Z,31.63
2019-04-06T14:21:04.515Z,31.94
2019-04-06T14:23:50.830Z,33.23
2019-04-06T14:26:35.646Z,32.98
2019-04-06T14:29:23.854Z,34.03
2019-04-06T14:31:56.821Z,33.83
2019-04-06T14:34:42.951Z,33.83
2019-04-06T14:37:24.845Z,34.23
2019-04-06T14:40:10.571Z,33.18
2019-04-06T14:42:43.207Z,34.99
2019-04-06T14:45:21.675Z,32.87
2019-04-06T14:47:51.615Z,33.54
2019-04-06T14:50:21.527Z,33.58
2019-04-06T14:52:57.451Z,33.59
2019-04-06T14:55:27.754Z,33.26
2019-04-06T14:58:00.227Z,35.68
2019-04-06T15:00:46.344Z,36.68
2019-04-06T15:03:28.262Z,37.48
2019-04-06T15:06:16.286Z,34.50
2019-04-06T15:08:46.657Z,34.50
2019-04-06T15:11:19.057Z,35.11
2019-04-06T15:13:52.018Z,36.54
2019-04-06T15:16:24.552Z,36.33
2019-04-06T15:19:00.220Z,34.98
2019-04-06T15:21:35.796Z,34.67
2019-04-06T15:24:17.855Z,35.27
2019-04-06T15:26:47.760Z,35.09
2019-04-06T15:29:29.964Z,34.68
2019-04-06T15:32:02.999Z,34.94
2019-04-06T15:34:48.813Z,36.07
2019-04-06T15:37:24.713Z,35.46
2019-04-06T15:40:03.206Z,35.95
2019-04-06T15:53:43.176Z,36.12
2019-04-06T15:56:14.068Z,36.67
2019-04-06T15:58:44.011Z,37.40
2019-04-06T16:01:28.670Z,37.41
2019-04-06T16:04:04.073Z,37.75
2019-04-06T16:06:39.951Z,38.53
2019-04-06T16:09:10.073Z,38.53
2019-04-06T16:11:42.512Z,39.17
2019-04-06T16:14:15.171Z,39.17
2019-04-06T16:16:45.080Z,39.33
2019-04-06T16:19:20.989Z,39.07
2019-04-06T16:22:06.915Z,39.07
2019-04-06T16:24:39.538Z,38.97
2019-04-06T16:27:18.697Z,38.41
2019-04-06T16:29:48.750Z,39.30
2019-04-06T16:32:18.716Z,39.53
2019-04-06T16:34:51.804Z,38.60
2019-04-06T16:37:36.206Z,38.62
2019-04-06T16:40:08.047Z,39.33
2019-04-06T16:42:43.569Z,39.25
2019-04-06T16:45:16.082Z,39.47
2019-04-06T16:47:46.110Z,40.11
2019-04-06T16:50:25.280Z,40.37
2019-04-06T16:52:55.306Z,40.53
2019-04-06T16:55:41.795Z,40.70
2019-04-06T16:58:28.261Z,39.84
2019-04-06T17:01:04.373Z,41.10
2019-04-06T17:03:43.106Z,42.14
2019-04-06T17:06:18.620Z,42.21
2019-04-06T17:08:57.675Z,42.40
2019-04-06T17:11:27.937Z,43.17
2019-04-06T17:14:00.506Z,43.67
2019-04-06T17:16:42.128Z,44.29
2019-04-06T17:19:27.030Z,44.76
2019-04-06T17:22:05.779Z,45.21
2019-04-06T17:24:36.236Z,45.34
2019-04-06T17:27:22.080Z,45.32
2019-04-06T17:30:00.808Z,45.81
2019-04-06T17:32:39.514Z,46.06
2019-04-06T17:35:24.233Z,47.01
2019-04-06T17:37:56.702Z,47.40
2019-04-06T17:40:35.662Z,47.67
2019-04-06T17:43:21.767Z,47.46
2019-04-06T17:45:54.149Z,48.30
2019-04-06T17:48:40.261Z,48.19
2019-04-06T17:51:19.274Z,48.48
2019-04-06T17:54:05.262Z,48.79
2019-04-06T17:56:35.208Z,48.51
2019-04-06T17:59:05.549Z,48.90
2019-04-06T18:01:52.058Z,49.22
2019-04-06T18:04:33.959Z,49.52
2019-04-06T18:07:07.452Z,50.12
2019-04-06T18:09:37.382Z,50.50
2019-04-06T18:12:10.120Z,50.79
2019-04-06T18:14:38.546Z,51.00
2019-04-06T18:17:06.961Z,51.28
2019-04-06T18:19:35.289Z,51.45
2019-04-06T18:22:04.084Z,51.72
2019-04-06T18:24:32.737Z,52.04
2019-04-06T18:27:01.114Z,52.07
2019-04-06T18:29:29.837Z,52.11
2019-04-06T18:32:15.293Z,52.37
2019-04-06T18:34:43.555Z,52.54
2019-04-06T18:37:22.415Z,52.60
2019-04-06T18:39:58.106Z,52.70
2019-04-06T18:42:26.398Z,52.74
2019-04-06T18:44:54.669Z,52.89
2019-04-06T18:47:23.156Z,53.00
2019-04-06T18:49:51.426Z,53.20
2019-04-06T18:52:20.075Z,53.34
2019-04-06T18:54:48.547Z,53.68
2019-04-06T18:57:17.277Z,53.72
2019-04-06T18:59:46.032Z,54.04
2019-04-06T19:02:14.772Z,54.54
2019-04-06T19:04:43.106Z,54.70
2019-04-06T19:07:11.405Z,54.77
2019-04-06T19:09:39.711Z,54.88
2019-04-06T19:12:07.949Z,55.04
2019-04-06T19:14:36.348Z,55.37
2019-04-06T19:17:04.606Z,55.60
2019-04-06T19:19:32.923Z,55.96
2019-04-06T19:22:01.437Z,56.28
2019-04-06T19:24:30.288Z,56.68
2019-04-06T19:26:58.985Z,57.05
2019-04-06T19:29:27.430Z,57.32
2019-04-06T19:31:57.951Z,57.53
2019-04-06T19:34:25.986Z,57.77
2019-04-06T19:36:54.318Z,57.88
2019-04-06T19:39:22.588Z,58.21
2019-04-06T19:41:51.072Z,58.70
2019-04-06T19:44:19.368Z,58.88
2019-04-06T19:46:47.856Z,59.16
2019-04-06T19:49:16.147Z,59.19
2019-04-06T19:51:44.417Z,59.44
2019-04-06T19:54:13.027Z,59.54
2019-04-06T19:56:41.431Z,59.66
2019-04-06T19:59:09.859Z,60.04
2019-04-06T20:01:38.971Z,60.13
2019-04-06T20:04:07.245Z,60.27
2019-04-06T20:06:35.522Z,60.60
2019-04-06T20:09:05.513Z,60.89
2019-04-06T20:11:34.705Z,61.26
2019-04-06T20:14:03.151Z,61.66
2019-04-06T20:16:31.871Z,61.85
2019-04-06T20:19:00.199Z,62.30
2019-04-06T20:21:28.529Z,62.46
2019-04-06T20:23:57.229Z,62.64
2019-04-06T20:26:25.522Z,62.83
2019-04-06T20:28:53.785Z,63.06
2019-04-06T20:31:22.459Z,62.99
2019-04-06T20:33:52.378Z,63.05
2019-04-06T20:36:20.813Z,63.17
2019-04-06T20:38:49.115Z,63.35
2019-04-06T20:41:17.397Z,63.78
2019-04-06T20:43:45.663Z,63.68
2019-04-06T20:46:13.949Z,64.05
2019-04-06T20:48:42.217Z,64.18
2019-04-06T20:51:10.570Z,64.46
2019-04-06T20:53:38.855Z,64.16
2019-04-06T20:56:07.143Z,64.31
2019-04-06T20:58:35.911Z,64.18
2019-04-06T21:01:04.381Z,64.37
2019-04-06T21:03:32.652Z,64.89
2019-04-06T21:06:00.955Z,65.33
2019-04-06T21:08:29.715Z,66.92
2019-04-06T21:10:58.063Z,67.20
2019-04-06T21:13:26.727Z,66.73
2019-04-06T21:15:55.481Z,66.53
2019-04-06T21:18:24.358Z,67.15
2019-04-06T21:20:54.259Z,68.50
2019-04-06T21:23:22.843Z,70.30
2019-04-06T21:25:51.851Z,71.22
2019-04-06T21:28:21.169Z,71.50
2019-04-06T21:30:49.487Z,70.90
2019-04-06T21:33:17.705Z,70.36
2019-04-06T21:35:45.998Z,72.24
2019-04-06T21:38:14.273Z,73.24
2019-04-06T21:40:42.539Z,74.47
2019-04-06T21:43:10.800Z,74.54
2019-04-06T21:45:39.409Z,74.74
2019-04-06T21:48:07.676Z,75.01
2019-04-06T21:50:35.976Z,74.68
2019-04-06T21:53:04.357Z,74.56
2019-04-06T21:55:32.576Z,74.97
2019-04-06T21:58:00.838Z,74.32
2019-04-06T22:00:33.352Z,75.20
2019-04-06T22:03:01.661Z,75.83
2019-04-06T22:05:29.923Z,76.06
2019-04-06T22:07:58.246Z,75.74
2019-04-06T22:10:26.512Z,75.61
2019-04-06T22:12:54.764Z,75.57
2019-04-06T22:15:23.067Z,75.24
2019-04-06T22:17:51.363Z,74.73
2019-04-06T22:20:19.753Z,74.24
2019-04-06T22:22:48.205Z,73.79
2019-04-06T22:25:16.408Z,74.33
2019-04-06T22:27:44.948Z,75.13
2019-04-06T22:30:16.058Z,75.72
2019-04-06T22:32:43.303Z,75.83
2019-04-06T22:35:11.595Z,75.17
2019-04-06T22:37:39.863Z,74.23
2019-04-06T22:40:08.597Z,73.74
2019-04-06T22:42:37.128Z,73.48
2019-04-06T22:45:09.766Z,74.10
2019-04-06T22:47:38.166Z,74.78
2019-04-06T22:50:07.029Z,74.87
2019-04-06T22:52:35.419Z,74.54
2019-04-06T22:55:07.455Z,74.07
2019-04-06T22:57:36.124Z,73.95
2019-04-06T23:00:06.811Z,74.08
2019-04-06T23:02:39.659Z,74.73
2019-04-06T23:05:18.872Z,75.48
2019-04-06T23:07:47.246Z,76.12
2019-04-06T23:10:15.817Z,76.24
2019-04-06T23:12:44.160Z,75.99
2019-04-06T23:15:12.629Z,75.83
2019-04-06T23:17:40.863Z,76.30
2019-04-06T23:20:09.510Z,76.36
2019-04-06T23:22:37.879Z,75.86
2019-04-06T23:25:06.132Z,75.89
2019-04-06T23:27:34.410Z,75.95
2019-04-06T23:30:03.116Z,76.34
2019-04-06T23:32:31.914Z,76.46
2019-04-06T23:35:02.293Z,77.06
2019-04-06T23:37:30.260Z,76.91
2019-04-06T23:39:59.044Z,77.02
2019-04-06T23:42:27.414Z,77.44
2019-04-06T23:44:55.663Z,78.16
2019-04-06T23:47:23.953Z,78.89
2019-04-06T23:49:52.323Z,78.73
2019-04-06T23:52:20.563Z,78.66
2019-04-06T23:54:48.835Z,78.50
2019-04-06T23:57:17.133Z,78.67
2019-04-06T23:59:45.386Z,78.20
